Time;durP1;ratioP1;P1;durP2;ratioP2;P2;SDS_P1;SDS_P2;PMS_P1;PMS_P2;Temp;Humidity;BMP_temperature;BMP_pressure;BME280_temperature;BME280_humidity;BME280_pressure;Samples;Min_cycle;Max_cycle;Signal;HPM_P1;HPM_P2
2023/01/19 00:00:32;;;;;;;;;;;;;;;;;;4936560;29;20290;-87
2023/01/19 00:02:57;;;;;;;;;;;;;;;;;;4919470;29;19918;-85
2023/01/19 00:05:23;;;;;;;;;;;;;;;;;;4936250;29;20350;-86
2023/01/19 00:07:48;;;;;;;;;;;;;;;;;;4936874;29;20013;-88
2023/01/19 00:10:14;;;;;;;;;;;;;;;;;;4936571;29;19919;-88
2023/01/19 00:12:39;;;;;;;;;;;;;;;;;;4936360;29;20453;-83
2023/01/19 00:15:05;;;;;;;;;;;;;;;;;;4936639;29;19926;-88
2023/01/19 00:17:30;;;;;;;;;;;;;;;;;;4936042;29;19926;-86
2023/01/19 00:19:56;;;;;;;;;;;;;;;;;;4936227;29;20294;-88
2023/01/19 00:22:21;;;;;;;;;;;;;;;;;;4936620;29;19982;-86
2023/01/19 00:24:47;;;;;;;;;;;;;;;;;;4935840;29;19977;-88
2023/01/19 00:27:12;;;;;;;;;;;;;;;;;;4936655;29;19919;-88
2023/01/19 00:29:37;;;;;;;;;;;;;;;;;;4936352;29;19919;-87
2023/01/19 00:32:03;;;;;;;;;;;;;;;;;;4936491;29;20343;-86
2023/01/19 00:34:35;;;;;;;;;;;;;;;;;;4936209;29;20272;-90
2023/01/19 00:37:02;;;;;;;;;;;;;;;;;;4936436;29;20395;-88
2023/01/19 00:39:27;;;;;;;;;;;;;;;;;;4919038;29;20371;-87
2023/01/19 00:44:36;;;;;;;;;;;;;;;;;;4936177;28;19934;-89
2023/01/19 00:47:04;;;;;;;;;;;;;;;;;;4919452;29;19919;-89
2023/01/19 00:49:30;;;;;;;;;;;;;;;;;;4919116;29;19922;-88
2023/01/19 00:51:56;;;;;;;;;;;;;;;;;;4936224;29;20359;-88
2023/01/19 00:54:22;;;;;;;;;;;;;;;;;;4936051;29;20026;-87
2023/01/19 00:56:48;;;;;;;;;;;;;;;;;;4918801;29;19951;-86
2023/01/19 00:59:13;;;;;;;;;;;;;;;;;;4939321;29;20013;-88
2023/01/19 01:01:39;;;;;;;;;;;;;;;;;;4922935;29;19926;-88
2023/01/19 01:04:04;;;;;;;;;;;;;;;;;;4939270;29;19942;-87
2023/01/19 01:06:30;;;;;;;;;;;;;;;;;;4939930;29;19954;-89
2023/01/19 01:08:55;;;;;;;;;;;;;;;;;;4939727;29;19918;-87
2023/01/19 01:11:20;;;;;;;;;;;;;;;;;;4904709;29;19930;-83
2023/01/19 01:13:46;;;;;;;;;;;;;;;;;;4920519;29;20292;-84
2023/01/19 01:16:13;;;;;;;;;;;;;;;;;;4920587;29;19923;-85
2023/01/19 01:18:38;;;;;;;;;;;;;;;;;;4920295;29;19919;-85
2023/01/19 01:21:05;;;;;;;;;;;;;;;;;;4920481;29;20406;-84
2023/01/19 01:23:30;;;;;;;;;;;;;;;;;;4903300;29;20014;-84
2023/01/19 01:25:55;;;;;;;;;;;;;;;;;;4920285;29;20362;-84
2023/01/19 01:28:21;;;;;;;;;;;;;;;;;;4903269;29;19930;-86
2023/01/19 01:30:46;;;;;;;;;;;;;;;;;;4920402;29;19930;-83
2023/01/19 01:33:12;;;;;;;;;;;;;;;;;;4903648;29;20316;-84
2023/01/19 01:35:37;;;;;;;;;;;;;;;;;;4920276;29;19923;-86
2023/01/19 01:38:03;;;;;;;;;;;;;;;;;;4903165;29;19963;-84
2023/01/19 01:40:28;;;;;;;;;;;;;;;;;;4903131;29;19927;-88
2023/01/19 01:42:54;;;;;;;;;;;;;;;;;;4902955;29;19927;-86
2023/01/19 01:45:22;;;;;;;;;;;;;;;;;;4902985;29;20013;-87
2023/01/19 01:47:48;;;;;;;;;;;;;;;;;;4920175;29;19923;-85
2023/01/19 01:50:19;;;;;;;;;;;;;;;;;;4903094;29;20014;-84
2023/01/19 01:52:50;;;;;;;;;;;;;;;;;;4919977;29;19926;-85
2023/01/19 01:55:17;;;;;;;;;;;;;;;;;;4919950;29;19975;-86
2023/01/19 01:57:45;;;;;;;;;;;;;;;;;;4904493;29;19965;-85
2023/01/19 02:00:11;;;;;;;;;;;;;;;;;;4948877;29;19919;-85
2023/01/19 02:02:53;;;;;;;;;;;;;;;;;;4917188;29;20379;-83
2023/01/19 02:05:21;;;;;;;;;;;;;;;;;;4932212;29;19930;-86
2023/01/19 02:13:18;;;;;;;;;;;;;;;;;;4920178;29;19973;-87
2023/01/19 02:15:44;;;;;;;;;;;;;;;;;;4902803;29;20290;-88
2023/01/19 02:18:09;;;;;;;;;;;;;;;;;;4902636;29;19919;-86
2023/01/19 02:20:36;;;;;;;;;;;;;;;;;;4902899;29;19925;-91
2023/01/19 02:23:05;;;;;;;;;;;;;;;;;;4919737;29;19926;-88
2023/01/19 02:25:31;;;;;;;;;;;;;;;;;;4902762;29;19928;-88
2023/01/19 02:27:56;;;;;;;;;;;;;;;;;;4919701;29;19926;-89
2023/01/19 02:30:22;;;;;;;;;;;;;;;;;;4919715;29;19930;-89
2023/01/19 02:32:48;;;;;;;;;;;;;;;;;;4902237;29;19977;-92
2023/01/19 02:35:13;;;;;;;;;;;;;;;;;;4902355;29;20382;-90
2023/01/19 02:37:39;;;;;;;;;;;;;;;;;;4902287;29;19919;-89
2023/01/19 02:40:08;;;;;;;;;;;;;;;;;;4919149;29;19927;-88
2023/01/19 02:42:36;;;;;;;;;;;;;;;;;;4901851;29;19942;-90
2023/01/19 02:45:05;;;;;;;;;;;;;;;;;;4901977;29;19931;-89
2023/01/19 02:47:43;;;;;;;;;;;;;;;;;;4919190;29;20111;-89
2023/01/19 02:50:27;;;;;;;;;;;;;;;;;;4919016;29;20286;-89
2023/01/19 02:52:56;;;;;;;;;;;;;;;;;;4919017;29;19998;-88
2023/01/19 02:55:26;;;;;;;;;;;;;;;;;;4902306;29;19919;-89
2023/01/19 02:57:58;;;;;;;;;;;;;;;;;;4901735;29;20359;-90
2023/01/19 03:00:31;;;;;;;;;;;;;;;;;;4901655;29;20005;-91
2023/01/19 03:03:32;;;;;;;;;;;;;;;;;;4918523;29;19926;-91
2023/01/19 03:06:07;;;;;;;;;;;;;;;;;;4844946;29;20282;-91
2023/01/19 03:08:36;;;;;;;;;;;;;;;;;;4910117;29;20345;-89
2023/01/19 03:11:03;;;;;;;;;;;;;;;;;;4918488;29;19971;-87
2023/01/19 03:13:35;;;;;;;;;;;;;;;;;;4901275;29;19926;-87
2023/01/19 03:16:05;;;;;;;;;;;;;;;;;;4918531;29;20082;-89
2023/01/19 03:18:32;;;;;;;;;;;;;;;;;;4901234;29;19967;-85
2023/01/19 03:20:59;;;;;;;;;;;;;;;;;;4918161;29;20379;-87
2023/01/19 03:23:26;;;;;;;;;;;;;;;;;;4918098;29;19915;-86
2023/01/19 03:25:54;;;;;;;;;;;;;;;;;;4901172;29;20002;-88
2023/01/19 03:28:20;;;;;;;;;;;;;;;;;;4918305;29;20018;-88
2023/01/19 03:30:48;;;;;;;;;;;;;;;;;;4901036;29;19923;-87
2023/01/19 03:33:26;;;;;;;;;;;;;;;;;;4918490;29;19975;-90
2023/01/19 03:35:52;;;;;;;;;;;;;;;;;;4917932;29;19949;-88
2023/01/19 03:38:22;;;;;;;;;;;;;;;;;;4901135;29;19919;-86
2023/01/19 03:40:48;;;;;;;;;;;;;;;;;;4901138;29;19995;-88
2023/01/19 03:43:15;;;;;;;;;;;;;;;;;;4917867;29;19919;-86
2023/01/19 03:45:42;;;;;;;;;;;;;;;;;;4900934;29;19923;-87
2023/01/19 03:48:07;;;;;;;;;;;;;;;;;;4900810;29;19961;-88
2023/01/19 03:50:33;;;;;;;;;;;;;;;;;;4900821;29;19970;-87
2023/01/19 03:52:59;;;;;;;;;;;;;;;;;;4901085;29;19975;-88
2023/01/19 03:55:25;;;;;;;;;;;;;;;;;;4900725;29;19926;-88
2023/01/19 03:57:50;;;;;;;;;;;;;;;;;;4917597;29;20009;-87
2023/01/19 04:00:15;;;;;;;;;;;;;;;;;;4917783;29;20383;-87
2023/01/19 04:02:41;;;;;;;;;;;;;;;;;;4916905;29;19934;-85
2023/01/19 04:05:06;;;;;;;;;;;;;;;;;;4900653;29;20336;-88
2023/01/19 04:07:32;;;;;;;;;;;;;;;;;;4917687;29;19923;-86
2023/01/19 04:09:57;;;;;;;;;;;;;;;;;;4900457;29;20354;-86
2023/01/19 04:12:22;;;;;;;;;;;;;;;;;;4900716;29;19930;-85
2023/01/19 04:14:48;;;;;;;;;;;;;;;;;;4917393;29;20375;-88
2023/01/19 04:17:14;;;;;;;;;;;;;;;;;;4900638;29;19927;-87
2023/01/19 04:19:39;;;;;;;;;;;;;;;;;;4917792;29;19919;-88
2023/01/19 04:22:05;;;;;;;;;;;;;;;;;;4917668;29;20368;-89
2023/01/19 04:24:30;;;;;;;;;;;;;;;;;;4900019;29;19927;-88
2023/01/19 04:26:56;;;;;;;;;;;;;;;;;;4900589;29;19927;-90
2023/01/19 04:29:21;;;;;;;;;;;;;;;;;;4900448;29;19923;-87
2023/01/19 04:31:46;;;;;;;;;;;;;;;;;;4900564;29;19923;-87
2023/01/19 04:34:12;;;;;;;;;;;;;;;;;;4903459;29;19919;-87
2023/01/19 04:36:37;;;;;;;;;;;;;;;;;;4921284;29;19923;-87
2023/01/19 04:39:03;;;;;;;;;;;;;;;;;;4903753;29;19926;-87
2023/01/19 04:41:29;;;;;;;;;;;;;;;;;;4904144;29;20014;-87
2023/01/19 04:43:54;;;;;;;;;;;;;;;;;;4921170;29;20007;-88
2023/01/19 04:46:20;;;;;;;;;;;;;;;;;;4904157;29;20314;-86
2023/01/19 04:48:45;;;;;;;;;;;;;;;;;;4921154;29;20376;-87
2023/01/19 04:51:10;;;;;;;;;;;;;;;;;;4920989;29;19927;-87
2023/01/19 04:53:36;;;;;;;;;;;;;;;;;;4904357;29;19930;-87
2023/01/19 04:56:01;;;;;;;;;;;;;;;;;;4904079;29;19923;-87
2023/01/19 04:58:27;;;;;;;;;;;;;;;;;;4903743;29;19942;-88
2023/01/19 05:00:52;;;;;;;;;;;;;;;;;;4921146;29;20410;-87
2023/01/19 05:03:18;;;;;;;;;;;;;;;;;;4920600;29;19966;-87
2023/01/19 05:05:44;;;;;;;;;;;;;;;;;;4903777;29;19926;-88
2023/01/19 05:08:09;;;;;;;;;;;;;;;;;;4920965;29;19919;-88
2023/01/19 05:10:35;;;;;;;;;;;;;;;;;;4920619;29;20014;-90
2023/01/19 05:13:00;;;;;;;;;;;;;;;;;;4903600;29;19923;-87
2023/01/19 05:15:26;;;;;;;;;;;;;;;;;;4920822;29;20013;-88
2023/01/19 05:17:51;;;;;;;;;;;;;;;;;;4920583;29;19924;-88
2023/01/19 05:20:17;;;;;;;;;;;;;;;;;;4920367;29;19919;-88
2023/01/19 05:22:47;;;;;;;;;;;;;;;;;;4920219;29;19927;-86
2023/01/19 05:25:12;;;;;;;;;;;;;;;;;;4920698;29;20386;-90
2023/01/19 05:27:38;;;;;;;;;;;;;;;;;;4920428;29;20013;-89
2023/01/19 05:30:04;;;;;;;;;;;;;;;;;;4908443;29;19930;-88
2023/01/19 05:32:29;;;;;;;;;;;;;;;;;;4901528;29;20383;-86
2023/01/19 05:34:55;;;;;;;;;;;;;;;;;;4901423;29;19920;-89
2023/01/19 05:37:20;;;;;;;;;;;;;;;;;;4918367;29;20478;-88
2023/01/19 05:39:46;;;;;;;;;;;;;;;;;;4918557;29;19919;-88
2023/01/19 05:42:11;;;;;;;;;;;;;;;;;;4901766;29;19927;-88
2023/01/19 05:44:36;;;;;;;;;;;;;;;;;;4901921;29;20402;-88
2023/01/19 05:47:02;;;;;;;;;;;;;;;;;;4928391;29;19922;-85
2023/01/19 05:49:27;;;;;;;;;;;;;;;;;;4920448;29;20379;-85
2023/01/19 05:51:53;;;;;;;;;;;;;;;;;;4938978;29;19929;-84
2023/01/19 05:54:18;;;;;;;;;;;;;;;;;;4940504;29;20390;-87
2023/01/19 05:56:43;;;;;;;;;;;;;;;;;;4953522;29;19950;-86
2023/01/19 05:59:09;;;;;;;;;;;;;;;;;;4937995;29;19918;-85
2023/01/19 06:01:36;;;;;;;;;;;;;;;;;;4948735;29;19923;-87
2023/01/19 06:04:01;;;;;;;;;;;;;;;;;;4938427;29;20378;-85
2023/01/19 06:06:26;;;;;;;;;;;;;;;;;;4903237;29;19923;-86
2023/01/19 06:08:52;;;;;;;;;;;;;;;;;;4921101;29;19926;-86
2023/01/19 06:11:17;;;;;;;;;;;;;;;;;;4919908;29;19926;-86
2023/01/19 06:13:43;;;;;;;;;;;;;;;;;;4902711;29;19923;-89
2023/01/19 06:16:09;;;;;;;;;;;;;;;;;;4919546;29;19922;-88
2023/01/19 06:18:34;;;;;;;;;;;;;;;;;;4919340;29;19915;-87
2023/01/19 06:21:03;;;;;;;;;;;;;;;;;;4919699;29;20002;-88
2023/01/19 06:23:30;;;;;;;;;;;;;;;;;;4902117;29;19919;-88
2023/01/19 06:25:55;;;;;;;;;;;;;;;;;;4902410;29;20367;-87
2023/01/19 06:28:21;;;;;;;;;;;;;;;;;;4919489;29;20006;-88
2023/01/19 06:30:50;;;;;;;;;;;;;;;;;;4902356;29;19919;-87
2023/01/19 06:33:17;;;;;;;;;;;;;;;;;;4898514;29;19923;-87
2023/01/19 06:35:43;;;;;;;;;;;;;;;;;;4898901;29;19920;-86
2023/01/19 06:38:08;;;;;;;;;;;;;;;;;;4898111;29;19930;-86
2023/01/19 06:40:33;;;;;;;;;;;;;;;;;;4902086;29;20306;-86
2023/01/19 06:42:59;;;;;;;;;;;;;;;;;;4902052;29;19923;-85
2023/01/19 06:45:24;;;;;;;;;;;;;;;;;;4918727;29;20025;-87
2023/01/19 06:47:49;;;;;;;;;;;;;;;;;;4901980;29;20347;-87
2023/01/19 06:50:15;;;;;;;;;;;;;;;;;;4918865;29;19919;-88
2023/01/19 06:52:41;;;;;;;;;;;;;;;;;;4918814;29;19933;-86
2023/01/19 06:55:09;;;;;;;;;;;;;;;;;;4918266;29;19919;-87
2023/01/19 06:57:35;;;;;;;;;;;;;;;;;;4901596;29;20009;-88
2023/01/19 07:00:04;;;;;;;;;;;;;;;;;;4901757;29;19927;-86
2023/01/19 07:02:29;;;;;;;;;;;;;;;;;;4918709;29;20010;-85
2023/01/19 07:04:55;;;;;;;;;;;;;;;;;;4901957;29;19967;-87
2023/01/19 07:07:20;;;;;;;;;;;;;;;;;;4901877;29;20006;-87
2023/01/19 07:09:45;;;;;;;;;;;;;;;;;;4901255;29;19991;-85
2023/01/19 07:12:11;;;;;;;;;;;;;;;;;;4905636;29;19927;-84
2023/01/19 07:14:36;;;;;;;;;;;;;;;;;;4901563;29;19923;-88
2023/01/19 07:17:02;;;;;;;;;;;;;;;;;;4920774;29;20002;-85
2023/01/19 07:19:27;;;;;;;;;;;;;;;;;;4903708;29;19915;-87
2023/01/19 07:21:53;;;;;;;;;;;;;;;;;;4903221;29;19931;-86
2023/01/19 07:24:18;;;;;;;;;;;;;;;;;;4918487;29;19926;-86
2023/01/19 07:26:43;;;;;;;;;;;;;;;;;;4897797;29;19995;-88
2023/01/19 07:29:09;;;;;;;;;;;;;;;;;;4897927;29;19924;-88
2023/01/19 07:31:34;;;;;;;;;;;;;;;;;;4899584;29;20423;-88
2023/01/19 07:34:00;;;;;;;;;;;;;;;;;;4918542;29;20264;-87
2023/01/19 07:36:25;;;;;;;;;;;;;;;;;;4901278;29;20060;-89
2023/01/19 07:38:51;;;;;;;;;;;;;;;;;;4901143;29;19927;-89
2023/01/19 07:41:16;;;;;;;;;;;;;;;;;;4918167;29;19919;-87
2023/01/19 07:43:41;;;;;;;;;;;;;;;;;;4901189;29;20271;-88
2023/01/19 07:46:07;;;;;;;;;;;;;;;;;;4918251;29;19920;-88
2023/01/19 07:48:32;;;;;;;;;;;;;;;;;;4917675;29;19923;-86
2023/01/19 07:51:04;;;;;;;;;;;;;;;;;;4918277;29;20018;-87
2023/01/19 07:53:29;;;;;;;;;;;;;;;;;;4917981;29;19923;-86
2023/01/19 07:55:55;;;;;;;;;;;;;;;;;;4917845;29;19967;-85
2023/01/19 07:58:22;;;;;;;;;;;;;;;;;;4918574;29;19929;-87
2023/01/19 08:00:47;;;;;;;;;;;;;;;;;;4917951;29;19919;-87
2023/01/19 08:03:13;;;;;;;;;;;;;;;;;;4917999;29;20389;-87
2023/01/19 08:05:38;;;;;;;;;;;;;;;;;;4917940;29;19923;-86
2023/01/19 08:08:04;;;;;;;;;;;;;;;;;;4900429;29;19977;-85
2023/01/19 08:10:30;;;;;;;;;;;;;;;;;;4917649;29;20025;-86
2023/01/19 08:12:56;;;;;;;;;;;;;;;;;;4917392;29;20018;-86
2023/01/19 08:15:23;;;;;;;;;;;;;;;;;;4917745;29;20406;-87
2023/01/19 08:17:55;;;;;;;;;;;;;;;;;;4900734;29;20018;-85
2023/01/19 08:20:22;;;;;;;;;;;;;;;;;;4917470;29;19926;-86
2023/01/19 08:22:47;;;;;;;;;;;;;;;;;;4917781;29;19923;-87
2023/01/19 08:25:13;;;;;;;;;;;;;;;;;;4900621;29;19967;-86
2023/01/19 08:27:38;;;;;;;;;;;;;;;;;;4917090;29;19924;-86
2023/01/19 08:30:04;;;;;;;;;;;;;;;;;;4900611;29;19926;-85
2023/01/19 08:32:29;;;;;;;;;;;;;;;;;;4918203;29;20388;-86
2023/01/19 08:34:55;;;;;;;;;;;;;;;;;;4922573;29;19923;-86
2023/01/19 08:37:20;;;;;;;;;;;;;;;;;;4917343;29;19923;-86
2023/01/19 08:39:46;;;;;;;;;;;;;;;;;;4917463;29;19971;-86
2023/01/19 08:42:11;;;;;;;;;;;;;;;;;;4900119;29;19923;-85
2023/01/19 08:44:36;;;;;;;;;;;;;;;;;;4900424;29;20371;-86
2023/01/19 08:47:02;;;;;;;;;;;;;;;;;;4899877;29;19958;-87
2023/01/19 08:49:27;;;;;;;;;;;;;;;;;;4900452;29;19923;-86
2023/01/19 08:51:59;;;;;;;;;;;;;;;;;;4903290;29;20013;-84
2023/01/19 08:54:24;;;;;;;;;;;;;;;;;;4901096;29;19923;-86
2023/01/19 08:56:50;;;;;;;;;;;;;;;;;;4917244;29;20291;-86
2023/01/19 08:59:15;;;;;;;;;;;;;;;;;;4900111;29;19926;-86
2023/01/19 09:01:41;;;;;;;;;;;;;;;;;;4900442;29;19930;-85
2023/01/19 09:04:06;;;;;;;;;;;;;;;;;;4917063;29;19923;-85
2023/01/19 09:06:33;;;;;;;;;;;;;;;;;;4900155;29;19919;-86
2023/01/19 09:08:58;;;;;;;;;;;;;;;;;;4900200;29;20333;-85
2023/01/19 09:11:23;;;;;;;;;;;;;;;;;;4917180;29;19971;-85
2023/01/19 09:13:49;;;;;;;;;;;;;;;;;;4916991;29;19962;-86
2023/01/19 09:16:14;;;;;;;;;;;;;;;;;;4900079;29;19919;-83
2023/01/19 09:18:40;;;;;;;;;;;;;;;;;;4900406;29;19923;-86
2023/01/19 09:21:05;;;;;;;;;;;;;;;;;;4903652;29;19969;-85
2023/01/19 09:23:31;;;;;;;;;;;;;;;;;;4920325;29;19927;-84
2023/01/19 09:25:58;;;;;;;;;;;;;;;;;;4903543;29;19919;-85
2023/01/19 09:28:23;;;;;;;;;;;;;;;;;;4920146;29;19923;-86
2023/01/19 09:30:49;;;;;;;;;;;;;;;;;;4920522;29;19919;-84
2023/01/19 09:33:15;;;;;;;;;;;;;;;;;;4909894;29;19925;-85
2023/01/19 09:35:41;;;;;;;;;;;;;;;;;;4938895;29;19926;-84
2023/01/19 09:38:07;;;;;;;;;;;;;;;;;;4934121;29;19923;-85
2023/01/19 09:40:35;;;;;;;;;;;;;;;;;;4906854;29;19919;-84
2023/01/19 09:43:11;;;;;;;;;;;;;;;;;;4925259;29;20542;-85
2023/01/19 09:45:55;;;;;;;;;;;;;;;;;;4911348;29;19954;-85
2023/01/19 09:48:25;;;;;;;;;;;;;;;;;;4902603;29;19930;-87
2023/01/19 09:50:52;;;;;;;;;;;;;;;;;;4920497;29;20430;-85
2023/01/19 09:53:31;;;;;;;;;;;;;;;;;;4904196;29;19929;-86
2023/01/19 09:55:57;;;;;;;;;;;;;;;;;;4900576;29;19919;-85
2023/01/19 09:58:22;;;;;;;;;;;;;;;;;;4900433;29;19926;-86
2023/01/19 10:00:54;;;;;;;;;;;;;;;;;;4900803;29;19930;-84
2023/01/19 10:03:21;;;;;;;;;;;;;;;;;;4902735;29;19924;-85
2023/01/19 10:05:57;;;;;;;;;;;;;;;;;;4902234;29;19930;-86
2023/01/19 10:08:35;;;;;;;;;;;;;;;;;;4901051;29;20295;-84
2023/01/19 10:11:00;;;;;;;;;;;;;;;;;;4895376;29;20359;-86
2023/01/19 10:13:32;;;;;;;;;;;;;;;;;;4919600;29;19977;-84
2023/01/19 10:16:02;;;;;;;;;;;;;;;;;;4919570;29;20018;-85
2023/01/19 10:18:37;;;;;;;;;;;;;;;;;;4902831;29;19951;-86
2023/01/19 10:21:23;;;;;;;;;;;;;;;;;;4919450;29;19927;-85
2023/01/19 10:23:55;;;;;;;;;;;;;;;;;;4901995;29;19919;-87
2023/01/19 10:26:22;;;;;;;;;;;;;;;;;;4919563;29;19922;-85
2023/01/19 10:28:49;;;;;;;;;;;;;;;;;;4937895;28;19919;-85
2023/01/19 10:31:16;;;;;;;;;;;;;;;;;;4937194;29;20022;-85
2023/01/19 10:33:42;;;;;;;;;;;;;;;;;;4938224;29;19922;-84
2023/01/19 10:36:33;;;;;;;;;;;;;;;;;;4920845;29;19923;-84
2023/01/19 10:38:59;;;;;;;;;;;;;;;;;;4935040;29;20302;-85
2023/01/19 10:41:38;;;;;;;;;;;;;;;;;;4922029;29;19922;-87
2023/01/19 10:44:04;;;;;;;;;;;;;;;;;;4938229;29;19926;-86
2023/01/19 10:47:02;;;;;;;;;;;;;;;;;;4937882;29;19923;-88
2023/01/19 10:49:30;;;;;;;;;;;;;;;;;;4904671;29;19958;-85
2023/01/19 10:51:57;;;;;;;;;;;;;;;;;;4937921;29;19918;-86
2023/01/19 10:54:23;;;;;;;;;;;;;;;;;;4917789;29;20022;-85
2023/01/19 10:56:56;;;;;;;;;;;;;;;;;;4902196;29;19927;-86
2023/01/19 10:59:29;;;;;;;;;;;;;;;;;;4918968;29;20378;-85
2023/01/19 11:02:02;;;;;;;;;;;;;;;;;;4901998;29;19920;-85
2023/01/19 11:04:28;;;;;;;;;;;;;;;;;;4918379;29;20019;-85
2023/01/19 11:07:11;;;;;;;;;;;;;;;;;;4918336;29;19966;-85
2023/01/19 11:09:37;;;;;;;;;;;;;;;;;;4918335;29;19919;-84
2023/01/19 11:12:02;;;;;;;;;;;;;;;;;;4918744;29;20276;-85
2023/01/19 11:14:29;;;;;;;;;;;;;;;;;;4900849;29;20018;-85
2023/01/19 11:16:55;;;;;;;;;;;;;;;;;;4918199;29;19923;-85
2023/01/19 11:19:26;;;;;;;;;;;;;;;;;;4901063;29;19938;-86
2023/01/19 11:22:05;;;;;;;;;;;;;;;;;;4900761;29;19927;-87
2023/01/19 11:24:31;;;;;;;;;;;;;;;;;;4901380;29;19998;-85
2023/01/19 11:27:01;;;;;;;;;;;;;;;;;;4915811;29;20021;-86
2023/01/19 11:29:27;;;;;;;;;;;;;;;;;;4920043;29;20343;-84
2023/01/19 11:31:53;;;;;;;;;;;;;;;;;;4919992;29;19923;-85
2023/01/19 11:34:30;;;;;;;;;;;;;;;;;;4920151;29;19922;-86
2023/01/19 11:36:58;;;;;;;;;;;;;;;;;;4900070;29;19924;-87
2023/01/19 11:39:25;;;;;;;;;;;;;;;;;;4900921;29;20378;-85
2023/01/19 11:41:55;;;;;;;;;;;;;;;;;;4900976;29;20397;-86
2023/01/19 11:44:30;;;;;;;;;;;;;;;;;;4900847;29;19973;-87
2023/01/19 11:46:57;;;;;;;;;;;;;;;;;;4917877;29;19923;-87
2023/01/19 11:49:37;;;;;;;;;;;;;;;;;;4900679;29;19920;-87
2023/01/19 11:52:05;;;;;;;;;;;;;;;;;;4900511;29;19923;-86
2023/01/19 11:54:34;;;;;;;;;;;;;;;;;;4896700;29;19923;-87
2023/01/19 11:57:00;;;;;;;;;;;;;;;;;;4912956;29;19923;-86
2023/01/19 11:59:26;;;;;;;;;;;;;;;;;;4917722;29;19919;-86
2023/01/19 12:01:55;;;;;;;;;;;;;;;;;;4917696;29;19927;-84
2023/01/19 12:04:35;;;;;;;;;;;;;;;;;;4900811;29;19994;-85
2023/01/19 12:07:07;;;;;;;;;;;;;;;;;;4896763;29;20304;-86
2023/01/19 12:09:44;;;;;;;;;;;;;;;;;;4897291;29;19926;-85
2023/01/19 12:12:14;;;;;;;;;;;;;;;;;;4913823;29;19923;-85
2023/01/19 12:14:49;;;;;;;;;;;;;;;;;;4917338;29;19927;-85
2023/01/19 12:17:29;;;;;;;;;;;;;;;;;;4900449;29;19927;-86
2023/01/19 12:20:13;;;;;;;;;;;;;;;;;;4916792;29;19915;-88
2023/01/19 12:22:48;;;;;;;;;;;;;;;;;;4916565;29;19919;-84
2023/01/19 12:25:30;;;;;;;;;;;;;;;;;;4916611;29;20364;-87
2023/01/19 12:27:56;;;;;;;;;;;;;;;;;;4899769;29;19926;-84
2023/01/19 12:30:26;;;;;;;;;;;;;;;;;;4916937;29;19923;-85
2023/01/19 12:32:51;;;;;;;;;;;;;;;;;;4900210;29;19916;-86
2023/01/19 12:35:35;;;;;;;;;;;;;;;;;;4916429;29;19919;-85
2023/01/19 12:38:20;;;;;;;;;;;;;;;;;;4918232;29;20438;-84
2023/01/19 12:40:46;;;;;;;;;;;;;;;;;;4917988;29;19958;-84
2023/01/19 12:43:14;;;;;;;;;;;;;;;;;;4917696;29;20426;-87
2023/01/19 12:45:40;;;;;;;;;;;;;;;;;;4917777;29;19958;-83
2023/01/19 12:48:22;;;;;;;;;;;;;;;;;;4917516;29;20391;-83
2023/01/19 12:50:47;;;;;;;;;;;;;;;;;;4917613;29;19919;-83
2023/01/19 12:53:18;;;;;;;;;;;;;;;;;;4917464;29;19926;-84
2023/01/19 12:55:46;;;;;;;;;;;;;;;;;;4921083;29;19919;-84
2023/01/19 12:58:22;;;;;;;;;;;;;;;;;;4921157;29;19919;-84
2023/01/19 13:00:48;;;;;;;;;;;;;;;;;;4915265;29;19927;-84
2023/01/19 13:03:17;;;;;;;;;;;;;;;;;;4902123;29;20399;-83
2023/01/19 13:05:42;;;;;;;;;;;;;;;;;;4905389;29;19928;-85
2023/01/19 13:08:11;;;;;;;;;;;;;;;;;;4903676;29;19926;-84
2023/01/19 13:10:52;;;;;;;;;;;;;;;;;;4903152;29;19971;-86
2023/01/19 13:13:23;;;;;;;;;;;;;;;;;;4900782;29;20072;-87
2023/01/19 13:15:49;;;;;;;;;;;;;;;;;;4902311;29;19919;-87
2023/01/19 13:18:22;;;;;;;;;;;;;;;;;;4889463;29;19926;-88
2023/01/19 13:20:58;;;;;;;;;;;;;;;;;;4914061;29;19959;-85
2023/01/19 13:23:43;;;;;;;;;;;;;;;;;;4900280;29;19920;-85
2023/01/19 13:26:11;;;;;;;;;;;;;;;;;;4911470;29;19920;-87
2023/01/19 13:28:39;;;;;;;;;;;;;;;;;;4904448;29;19920;-89
2023/01/19 13:31:06;;;;;;;;;;;;;;;;;;4903973;29;20045;-86
2023/01/19 13:33:36;;;;;;;;;;;;;;;;;;4885237;29;19979;-82
2023/01/19 13:36:02;;;;;;;;;;;;;;;;;;4901958;29;19923;-88
2023/01/19 13:38:28;;;;;;;;;;;;;;;;;;4901762;29;19926;-89
2023/01/19 13:40:54;;;;;;;;;;;;;;;;;;4886110;29;19922;-90
2023/01/19 13:43:23;;;;;;;;;;;;;;;;;;4887182;29;19919;-85
2023/01/19 13:45:49;;;;;;;;;;;;;;;;;;4886505;29;19916;-84
2023/01/19 13:48:22;;;;;;;;;;;;;;;;;;4903313;29;19924;-85
2023/01/19 13:51:04;;;;;;;;;;;;;;;;;;4904360;29;20245;-86
2023/01/19 13:53:33;;;;;;;;;;;;;;;;;;4886848;29;20276;-87
2023/01/19 13:56:08;;;;;;;;;;;;;;;;;;4902911;29;20390;-87
2023/01/19 13:58:35;;;;;;;;;;;;;;;;;;4885883;29;19920;-84
2023/01/19 14:01:01;;;;;;;;;;;;;;;;;;4885969;29;19919;-85
2023/01/19 14:03:26;;;;;;;;;;;;;;;;;;4886135;29;19920;-85
2023/01/19 14:05:55;;;;;;;;;;;;;;;;;;4885411;29;19919;-85
2023/01/19 14:08:21;;;;;;;;;;;;;;;;;;4886547;29;19927;-85
2023/01/19 14:11:00;;;;;;;;;;;;;;;;;;4885452;29;19919;-86
2023/01/19 14:13:28;;;;;;;;;;;;;;;;;;4878552;29;19931;-85
2023/01/19 14:16:12;;;;;;;;;;;;;;;;;;4883362;29;19919;-89
2023/01/19 14:18:37;;;;;;;;;;;;;;;;;;4883205;29;19920;-86
2023/01/19 14:21:13;;;;;;;;;;;;;;;;;;4882386;29;19920;-84
2023/01/19 14:23:53;;;;;;;;;;;;;;;;;;4883228;29;19916;-85
2023/01/19 14:26:37;;;;;;;;;;;;;;;;;;4882997;29;20317;-86
2023/01/19 14:29:09;;;;;;;;;;;;;;;;;;4865818;29;19971;-84
2023/01/19 14:31:55;;;;;;;;;;;;;;;;;;4883070;29;19919;-83
2023/01/19 14:34:32;;;;;;;;;;;;;;;;;;4864386;29;19919;-86
2023/01/19 14:36:58;;;;;;;;;;;;;;;;;;4865294;29;19923;-85
2023/01/19 14:39:25;;;;;;;;;;;;;;;;;;4865040;29;20018;-84
2023/01/19 14:41:51;;;;;;;;;;;;;;;;;;4865221;29;19919;-85
2023/01/19 14:44:26;;;;;;;;;;;;;;;;;;4882278;29;20407;-86
2023/01/19 14:46:52;;;;;;;;;;;;;;;;;;4882342;29;19923;-85
2023/01/19 14:49:27;;;;;;;;;;;;;;;;;;4864816;29;19920;-89
2023/01/19 14:51:52;;;;;;;;;;;;;;;;;;4865104;29;20390;-85
2023/01/19 14:54:22;;;;;;;;;;;;;;;;;;4881238;29;19919;-87
2023/01/19 14:56:47;;;;;;;;;;;;;;;;;;4870445;29;19924;-86
2023/01/19 14:59:12;;;;;;;;;;;;;;;;;;4881455;29;19987;-85
2023/01/19 15:01:38;;;;;;;;;;;;;;;;;;4866747;29;19923;-84
2023/01/19 15:04:03;;;;;;;;;;;;;;;;;;4864843;29;20349;-84
2023/01/19 15:06:30;;;;;;;;;;;;;;;;;;4864647;29;19967;-86
2023/01/19 15:08:55;;;;;;;;;;;;;;;;;;4881634;29;19955;-83
2023/01/19 15:11:23;;;;;;;;;;;;;;;;;;4881349;29;20303;-84
2023/01/19 15:13:49;;;;;;;;;;;;;;;;;;4890732;29;19924;-84
2023/01/19 15:16:14;;;;;;;;;;;;;;;;;;4898983;29;19979;-84
2023/01/19 15:18:40;;;;;;;;;;;;;;;;;;4882585;29;19920;-87
2023/01/19 15:21:10;;;;;;;;;;;;;;;;;;4883183;29;19920;-85
2023/01/19 15:23:35;;;;;;;;;;;;;;;;;;4899971;29;19954;-86
2023/01/19 15:26:01;;;;;;;;;;;;;;;;;;4900007;29;19977;-87
2023/01/19 15:28:27;;;;;;;;;;;;;;;;;;4899811;29;19927;-86
2023/01/19 15:30:52;;;;;;;;;;;;;;;;;;4899596;29;19946;-85
2023/01/19 15:33:22;;;;;;;;;;;;;;;;;;4883248;29;19920;-87
2023/01/19 15:35:48;;;;;;;;;;;;;;;;;;4899518;29;19919;-87
2023/01/19 15:38:13;;;;;;;;;;;;;;;;;;4882810;29;19976;-86
2023/01/19 15:40:39;;;;;;;;;;;;;;;;;;4899541;29;19924;-87
2023/01/19 15:43:04;;;;;;;;;;;;;;;;;;4899607;29;19958;-85
2023/01/19 15:45:34;;;;;;;;;;;;;;;;;;4882866;29;20336;-85
2023/01/19 15:48:00;;;;;;;;;;;;;;;;;;4899250;29;19923;-83
2023/01/19 15:50:26;;;;;;;;;;;;;;;;;;4899518;29;19942;-83
2023/01/19 15:52:51;;;;;;;;;;;;;;;;;;4899673;29;20427;-85
2023/01/19 15:55:16;;;;;;;;;;;;;;;;;;4899069;29;20379;-87
2023/01/19 15:57:42;;;;;;;;;;;;;;;;;;4899281;29;19927;-82
2023/01/19 16:00:08;;;;;;;;;;;;;;;;;;4899365;29;19966;-83
2023/01/19 16:02:35;;;;;;;;;;;;;;;;;;4899399;29;20372;-84
2023/01/19 16:05:00;;;;;;;;;;;;;;;;;;4898943;29;19920;-84
2023/01/19 16:07:25;;;;;;;;;;;;;;;;;;4899106;29;20296;-87
2023/01/19 16:09:51;;;;;;;;;;;;;;;;;;4882703;29;19927;-84
2023/01/19 16:12:16;;;;;;;;;;;;;;;;;;4898716;29;20372;-86
2023/01/19 16:14:41;;;;;;;;;;;;;;;;;;4915174;29;20298;-86
2023/01/19 16:17:07;;;;;;;;;;;;;;;;;;4917241;29;19919;-86
2023/01/19 16:19:32;;;;;;;;;;;;;;;;;;4900361;29;19919;-85
2023/01/19 16:21:58;;;;;;;;;;;;;;;;;;4917402;29;19919;-85
2023/01/19 16:24:23;;;;;;;;;;;;;;;;;;4900270;29;19923;-84
2023/01/19 16:26:49;;;;;;;;;;;;;;;;;;4917378;29;19915;-84
2023/01/19 16:29:14;;;;;;;;;;;;;;;;;;4902371;29;19931;-87
2023/01/19 16:31:40;;;;;;;;;;;;;;;;;;4921944;29;19971;-88
2023/01/19 16:34:06;;;;;;;;;;;;;;;;;;4904741;29;20272;-86
2023/01/19 16:36:33;;;;;;;;;;;;;;;;;;4921237;29;19930;-84
2023/01/19 16:38:59;;;;;;;;;;;;;;;;;;4931239;29;20040;-87
2023/01/19 16:41:24;;;;;;;;;;;;;;;;;;4940336;29;19928;-84
2023/01/19 16:43:51;;;;;;;;;;;;;;;;;;4922840;29;19927;-85
2023/01/19 16:46:19;;;;;;;;;;;;;;;;;;4908632;29;20077;-87
2023/01/19 16:48:44;;;;;;;;;;;;;;;;;;4931202;29;19923;-85
2023/01/19 16:51:10;;;;;;;;;;;;;;;;;;4927447;29;19923;-87
2023/01/19 16:53:35;;;;;;;;;;;;;;;;;;4929806;29;19963;-88
2023/01/19 16:56:08;;;;;;;;;;;;;;;;;;4928288;29;20358;-84
2023/01/19 16:58:37;;;;;;;;;;;;;;;;;;4920660;29;20292;-85